Date,TemperatureHighF,TemperatureAvgF,TemperatureLowF,DewpointHighF,DewpointAvgF,DewpointLowF,HumidityHigh,HumidityAvg,HumidityLow,PressureMaxIn,PressureMinIn,WindSpeedMaxMPH,WindSpeedAvgMPH,GustSpeedMaxMPH,PrecipitationSumIn
2013-2-1,36.1,32.6,30.7,33.9,31.9,30.5,99,97,85,30.03,29.53,20,6,29,0.00
2013-2-2,32.7,31.4,28.0,32.5,31.1,27.8,99,99,99,29.52,29.46,19,6,23,3.74
2013-2-8,30.2,21.6,17.8,27.8,20.3,17.5,99,95,81,30.01,29.92,8,3,11,0.00
2013-2-9,17.8,17.3,16.7,17.5,17.1,16.5,99,99,99,30.05,30.01,5,3,8,0.00
2013-2-10,34.7,21.0,15.4,27.4,15.2,12.0,98,79,56,29.92,29.78,4,1,8,0.00
2013-2-11,18.5,17.2,15.8,18.1,16.7,13.5,99,98,89,29.78,29.65,9,5,18,0.17
2013-2-12,22.1,19.3,17.6,21.9,19.1,17.4,99,99,99,29.84,29.65,6,2,11,0.00
2013-2-13,21.6,19.7,18.7,21.3,19.4,18.4,99,99,99,30.18,29.83,4,2,6,0.00
2013-2-14,28.4,22.2,19.2,28.2,21.9,19.0,99,99,97,30.18,29.98,1,0,2,0.00
2013-2-15,31.5,24.1,21.6,31.2,23.9,21.3,99,99,97,30.06,29.93,7,1,8,0.07
2013-2-16,31.8,27.6,23.2,31.6,27.4,22.9,99,99,99,30.16,30.07,9,4,11,0.00
2013-2-17,29.5,27.5,25.0,29.2,27.3,24.7,99,99,99,30.16,30.12,0,0,0,0.01
2013-2-18,28.6,24.6,21.9,28.3,24.4,21.7,99,99,99,30.12,29.98,0,0,0,0.00
2013-2-19,26.2,23.9,20.7,26.0,23.7,20.4,99,99,99,29.98,29.74,21,11,27,12.08
2013-2-20,21.7,19.7,17.2,21.5,19.5,17.0,99,99,99,30.01,29.88,14,8,21,0.04
2013-2-21,25.9,16.4,12.2,25.4,16.0,11.5,99,98,95,30.01,29.95,9,3,13,0.00
2013-2-22,19.9,14.7,11.7,19.7,14.1,10.7,99,97,96,29.95,29.78,11,4,18,0.00
2013-2-23,21.7,18.4,15.8,21.5,18.1,15.6,99,99,99,29.78,29.68,8,4,14,0.00
2013-2-24,34.5,26.2,19.4,34.3,26.0,19.2,99,99,99,29.91,29.73,4,1,7,0.01
2013-2-25,32.7,32.3,31.6,32.5,32.1,31.4,99,99,99,30.20,29.90,9,2,14,0.06
2013-2-26,36.3,30.9,24.6,36.1,30.7,24.4,99,99,99,30.28,30.19,11,3,16,0.09
2013-2-27,33.3,28.4,24.3,33.0,28.2,24.0,99,99,99,30.32,30.27,0,0,0,0.00
2013-2-28,32.5,28.2,25.3,28.3,-42.6,-99.9,99,45,99,30.30,30.11,0,0,0,0.01